createdAt,value
2019-02-05T00:00:26.858Z,98277.27
2019-02-05T00:05:33.559Z,98271.52
2019-02-05T00:10:38.186Z,98272.73
2019-02-05T00:15:42.851Z,98272.64
2019-02-05T00:20:47.570Z,98269.50
2019-02-05T00:25:52.163Z,98275.88
2019-02-05T00:30:56.752Z,98275.91
2019-02-05T00:36:01.492Z,98273.89
2019-02-05T00:41:06.341Z,98271.78
2019-02-05T00:46:11.082Z,98267.48
2019-02-05T00:51:15.827Z,98278.48
2019-02-05T00:56:20.455Z,98278.11
2019-02-05T01:01:25.104Z,98279.70
2019-02-05T01:06:29.952Z,98276.61
2019-02-05T01:11:34.798Z,98267.31
2019-02-05T01:16:39.845Z,98269.77
2019-02-05T01:21:44.589Z,98270.59
2019-02-05T01:26:49.333Z,98273.16
2019-02-05T01:31:54.075Z,98263.30
2019-02-05T01:36:58.818Z,98259.04
2019-02-05T01:42:03.563Z,98263.72
2019-02-05T01:47:08.207Z,98270.47
2019-02-05T01:52:13.356Z,98271.53
2019-02-05T01:57:18.202Z,98271.33
2019-02-05T02:02:22.766Z,98265.11
2019-02-05T02:07:27.387Z,98267.38
2019-02-05T02:12:32.122Z,98265.73
2019-02-05T02:17:36.872Z,98259.38
2019-02-05T02:22:41.507Z,98253.42
2019-02-05T02:27:46.184Z,98270.24
2019-02-05T02:32:50.997Z,98269.16
2019-02-05T02:37:55.740Z,98260.73
2019-02-05T02:43:00.382Z,98265.48
2019-02-05T02:48:05.121Z,98272.34
2019-02-05T02:53:09.867Z,98274.30
2019-02-05T02:58:14.497Z,98279.92
2019-02-05T03:03:19.247Z,98280.80
2019-02-05T03:08:23.880Z,98282.03
2019-02-05T03:13:28.632Z,98273.13
2019-02-05T03:18:33.273Z,98270.12
2019-02-05T03:23:38.119Z,98275.05
2019-02-05T03:28:42.756Z,98283.66
2019-02-05T03:33:47.399Z,98270.09
2019-02-05T03:38:51.959Z,98275.28
2019-02-05T03:43:56.576Z,98281.84
2019-02-05T03:49:01.219Z,98278.28
2019-02-05T03:54:20.700Z,98267.08
2019-02-05T03:59:50.028Z,98273.69
2019-02-05T04:05:07.059Z,98271.97
2019-02-05T04:10:36.379Z,98268.43
2019-02-05T04:15:55.967Z,98273.13
2019-02-05T04:21:15.869Z,98278.23
2019-02-05T04:26:26.539Z,98278.39
2019-02-05T04:31:52.628Z,98274.11
2019-02-05T04:37:12.583Z,98276.69
2019-02-05T04:42:34.644Z,98272.41
2019-02-05T04:48:00.799Z,98275.66
2019-02-05T04:53:27.196Z,98267.75
2019-02-05T04:58:54.304Z,98270.72
2019-02-05T05:04:17.496Z,98272.07
2019-02-05T05:09:40.352Z,98286.27
2019-02-05T05:14:44.904Z,98289.80
2019-02-05T05:19:49.653Z,98287.67
2019-02-05T05:24:57.208Z,98298.58
2019-02-05T05:30:06.425Z,98295.61
2019-02-05T05:35:19.809Z,98300.41
2019-02-05T05:40:30.043Z,98300.11
2019-02-05T05:45:37.098Z,98303.00
2019-02-05T05:50:41.953Z,98307.84
2019-02-05T05:55:46.579Z,98315.19
2019-02-05T06:00:51.326Z,98314.54
2019-02-05T06:05:56.070Z,98318.94
2019-02-05T06:11:00.813Z,98316.92
2019-02-05T06:16:05.750Z,98322.42
2019-02-05T06:21:13.483Z,98318.00
2019-02-05T06:26:20.041Z,98317.12
2019-02-05T06:31:24.701Z,98326.11
2019-02-05T06:36:30.571Z,98336.59
2019-02-05T06:41:36.954Z,98330.66
2019-02-05T06:46:42.117Z,98333.40
2019-02-05T06:51:46.955Z,98333.48
2019-02-05T06:56:51.691Z,98329.33
2019-02-05T07:21:51.521Z,98328.16
2019-02-05T07:26:56.567Z,98330.38
2019-02-05T07:32:01.313Z,98328.95
2019-02-05T07:37:06.260Z,98324.89
2019-02-05T07:42:12.026Z,98325.95
2019-02-05T07:47:16.764Z,98331.19
2019-02-05T07:52:23.217Z,98332.16
2019-02-05T07:57:28.301Z,98333.40
2019-02-05T08:02:32.946Z,98344.09
2019-02-05T08:07:37.686Z,98343.33
2019-02-05T08:12:42.322Z,98338.73
2019-02-05T08:17:47.274Z,98337.39
2019-02-05T08:22:51.915Z,98333.02
2019-02-05T08:27:59.526Z,98331.41
2019-02-05T08:33:04.270Z,98330.00
2019-02-05T08:38:08.926Z,98327.53
2019-02-05T08:43:13.658Z,98326.95
2019-02-05T08:48:18.222Z,98340.64
2019-02-05T08:53:22.936Z,98336.17
2019-02-05T08:58:31.055Z,98343.20
2019-02-05T09:03:37.238Z,98338.03
2019-02-05T09:08:41.979Z,98340.88
2019-02-05T09:13:46.822Z,98335.16
2019-02-05T09:18:51.688Z,98338.69
2019-02-05T09:23:56.619Z,98334.38
2019-02-05T09:29:01.254Z,98338.19
2019-02-05T09:34:06.000Z,98333.41
2019-02-05T09:39:10.642Z,98327.62
2019-02-05T09:44:16.348Z,98328.39
2019-02-05T09:49:21.360Z,98324.02
2019-02-05T09:54:26.246Z,98321.42
2019-02-05T09:59:30.947Z,98323.58
2019-02-05T10:04:35.492Z,98319.95
2019-02-05T10:09:41.659Z,98311.06
2019-02-05T10:14:46.584Z,98314.72
2019-02-05T10:19:51.349Z,98305.41
2019-02-05T10:24:56.091Z,98294.19
2019-02-05T10:30:00.841Z,98290.00
2019-02-05T10:35:08.057Z,98280.23
2019-02-05T10:40:14.009Z,98286.20
2019-02-05T10:45:23.669Z,98284.70
2019-02-05T10:50:28.411Z,98288.92
2019-02-05T10:55:33.257Z,98278.94
2019-02-05T11:00:37.968Z,98270.23
2019-02-05T11:05:43.057Z,98265.19
2019-02-05T11:10:47.795Z,98265.70
2019-02-05T11:15:52.534Z,98260.77
2019-02-05T11:20:58.899Z,98260.63
2019-02-05T11:26:03.725Z,98248.77
2019-02-05T11:31:08.919Z,98247.42
2019-02-05T11:36:13.662Z,98245.44
2019-02-05T11:41:18.399Z,98237.27
2019-02-05T11:46:23.146Z,98236.80
2019-02-05T11:51:27.990Z,98242.08
2019-02-05T11:56:32.741Z,98234.75
2019-02-05T12:01:39.270Z,98242.98
2019-02-05T12:06:43.958Z,98240.70
2019-02-05T12:11:48.705Z,98245.75
2019-02-05T12:16:54.528Z,98245.27
2019-02-05T12:21:59.317Z,98243.39
2019-02-05T12:27:04.060Z,98241.48
2019-02-05T12:32:08.910Z,98237.70
2019-02-05T12:37:13.956Z,98239.65
2019-02-05T12:42:18.703Z,98236.92
2019-02-05T12:47:23.548Z,98233.06
2019-02-05T12:52:29.922Z,98236.05
2019-02-05T12:57:34.758Z,98221.83
2019-02-05T13:02:39.721Z,98230.19
2019-02-05T13:07:44.462Z,98232.64
2019-02-05T13:12:49.309Z,98233.69
2019-02-05T13:17:54.056Z,98224.95
2019-02-05T13:22:58.798Z,98220.78
2019-02-05T13:43:45.713Z,98223.52
2019-02-05T13:48:50.453Z,98231.80
2019-02-05T13:53:55.198Z,98231.81
2019-02-05T13:58:59.953Z,98233.09
2019-02-05T14:04:04.997Z,98234.54
2019-02-05T14:09:11.712Z,98230.98
2019-02-05T14:14:16.269Z,98231.92
2019-02-05T14:19:21.577Z,98223.20
2019-02-05T14:24:26.319Z,98229.68
2019-02-05T14:29:30.961Z,98239.74
2019-02-05T14:34:36.113Z,98238.28
2019-02-05T14:39:40.688Z,98237.99
2019-02-05T14:44:45.496Z,98237.42
2019-02-05T14:49:50.552Z,98234.70
2019-02-05T14:54:55.183Z,98239.41
2019-02-05T14:59:59.747Z,98251.38
2019-02-05T15:05:07.705Z,98254.37
2019-02-05T15:10:14.807Z,98249.13
2019-02-05T15:15:27.985Z,98252.43
2019-02-05T15:20:41.243Z,98249.38
2019-02-05T15:25:46.380Z,98251.95
2019-02-05T15:30:51.067Z,98253.87
2019-02-05T15:35:57.610Z,98263.50
2019-02-05T15:41:02.857Z,98279.97
2019-02-05T15:46:07.604Z,98287.72
2019-02-05T15:51:12.445Z,98282.91
2019-02-05T15:56:17.326Z,98279.84
2019-02-05T16:01:22.251Z,98278.83
2019-02-05T16:06:28.220Z,98284.19
2019-02-05T16:11:32.998Z,98282.73
2019-02-05T16:16:37.925Z,98289.81
2019-02-05T16:21:43.006Z,98284.56
2019-02-05T16:26:48.885Z,98282.00
2019-02-05T16:31:53.772Z,98278.42
2019-02-05T16:36:58.428Z,98274.38
2019-02-05T16:42:03.484Z,98279.06
2019-02-05T16:47:08.211Z,98278.94
2019-02-05T16:52:13.056Z,98279.74
2019-02-05T16:57:18.002Z,98271.08
2019-02-05T17:02:28.837Z,98276.47
2019-02-05T17:07:29.231Z,98272.61
2019-02-05T17:12:33.968Z,98288.87
2019-02-05T17:17:39.218Z,98274.12
2019-02-05T17:22:45.066Z,98277.92
2019-02-05T17:27:49.832Z,98266.48
2019-02-05T17:32:54.761Z,98272.55
2019-02-05T17:37:59.735Z,98265.03
2019-02-05T17:43:04.649Z,98265.67
2019-02-05T17:48:15.268Z,98247.77
2019-02-05T17:53:24.879Z,98240.53
2019-02-05T17:58:29.637Z,98247.80
2019-02-05T18:03:34.322Z,98242.50
2019-02-05T18:08:39.039Z,98221.45
2019-02-05T18:13:43.891Z,98224.53
2019-02-05T18:18:50.679Z,98223.03
2019-02-05T18:23:55.528Z,98227.70
2019-02-05T18:29:00.269Z,98228.09
2019-02-05T18:34:05.222Z,98224.30
2019-02-05T18:39:09.907Z,98232.33
2019-02-05T18:44:15.960Z,98242.04
2019-02-05T18:49:20.685Z,98235.89
2019-02-05T18:54:26.270Z,98236.61
2019-02-05T18:59:30.983Z,98253.14
2019-02-05T19:04:35.824Z,98253.89
2019-02-05T19:09:40.566Z,98245.95
2019-02-05T19:14:45.681Z,98240.91
2019-02-05T19:19:51.118Z,98240.10
2019-02-05T19:24:57.355Z,98239.39
2019-02-05T19:30:02.207Z,98237.38
2019-02-05T19:35:08.492Z,98225.59
2019-02-05T19:40:13.738Z,98224.11
2019-02-05T19:45:28.926Z,98227.22
2019-02-05T19:50:33.976Z,98223.48
2019-02-05T19:55:38.875Z,98220.09
2019-02-05T20:00:43.563Z,98212.28
2019-02-05T20:05:48.715Z,98219.63
2019-02-05T20:10:53.463Z,98209.46
2019-02-05T20:15:59.325Z,98197.72
2019-02-05T20:21:04.184Z,98197.89
2019-02-05T20:26:09.126Z,98206.08
2019-02-05T20:31:14.731Z,98223.46
2019-02-05T20:36:19.602Z,98235.13
2019-02-05T20:41:24.445Z,98234.66
2019-02-05T20:46:29.833Z,98209.70
2019-02-05T20:51:35.291Z,98199.08
2019-02-05T20:56:40.237Z,98179.86
2019-02-05T21:01:44.886Z,98182.60
2019-02-05T21:06:49.621Z,98181.02
2019-02-05T21:11:55.899Z,98177.35
2019-02-05T21:17:00.750Z,98174.95
2019-02-05T21:22:08.839Z,98170.49
2019-02-05T21:27:12.221Z,98167.16
2019-02-05T21:32:16.825Z,98163.34
2019-02-05T21:37:21.460Z,98164.06
2019-02-05T21:42:26.197Z,98172.20
2019-02-05T21:47:31.250Z,98171.08
2019-02-05T21:52:36.031Z,98168.84
2019-02-05T21:57:40.740Z,98169.83
2019-02-05T22:02:45.503Z,98176.16
2019-02-05T22:07:50.327Z,98177.43
2019-02-05T22:12:55.372Z,98179.02
2019-02-05T22:18:00.231Z,98177.41
2019-02-05T22:23:06.501Z,98158.49
2019-02-05T22:28:11.241Z,98151.45
2019-02-05T22:33:16.092Z,98152.45
2019-02-05T22:38:20.831Z,98145.53
2019-02-05T22:43:26.433Z,98134.63
2019-02-05T22:48:31.237Z,98121.34
2019-02-05T22:53:35.823Z,98122.77
2019-02-05T22:58:40.426Z,98125.17
2019-02-05T23:03:48.125Z,98118.45
2019-02-05T23:08:54.106Z,98113.32
2019-02-05T23:13:59.354Z,98106.69
2019-02-05T23:19:04.351Z,98097.83
2019-02-05T23:24:09.151Z,98087.55
2019-02-05T23:29:15.120Z,98083.33
2019-02-05T23:34:19.971Z,98081.89
2019-02-05T23:39:24.502Z,98077.24
2019-02-05T23:44:29.248Z,98077.71
2019-02-05T23:49:34.296Z,98070.59
2019-02-05T23:54:38.935Z,98064.36
2019-02-05T23:59:43.685Z,98081.12
